createdAt,value
2023-04-07T00:00:49.912Z,6.00
2023-04-07T00:03:24.651Z,6.20
2023-04-07T00:05:53.040Z,6.40
2023-04-07T00:08:21.008Z,6.30
2023-04-07T00:10:48.958Z,6.50
2023-04-07T00:13:16.791Z,6.80
2023-04-07T00:15:44.988Z,8.20
2023-04-07T00:18:17.045Z,6.60
2023-04-07T00:20:45.069Z,7.40
2023-04-07T00:23:12.872Z,6.00
2023-04-07T00:25:40.739Z,6.70
2023-04-07T00:28:08.820Z,5.50
2023-04-07T00:30:37.098Z,5.20
2023-04-07T00:33:05.755Z,5.40
2023-04-07T00:35:37.793Z,4.70
2023-04-07T00:38:06.779Z,4.40
2023-04-07T00:40:34.666Z,4.80
2023-04-07T00:43:06.860Z,4.40
2023-04-07T00:45:36.686Z,4.10
2023-04-07T00:48:05.502Z,4.60
2023-04-07T00:50:34.304Z,3.80
2023-04-07T00:53:02.664Z,4.20
2023-04-07T00:55:30.969Z,3.90
2023-04-07T00:57:58.831Z,4.00
2023-04-07T01:00:27.043Z,3.90
2023-04-07T01:02:59.180Z,4.10
2023-04-07T01:05:46.458Z,4.10
2023-04-07T01:08:21.049Z,3.90
2023-04-07T01:11:08.737Z,4.40
2023-04-07T01:13:48.209Z,3.90
2023-04-07T01:16:53.717Z,3.50
2023-04-07T01:19:37.363Z,5.00
2023-04-07T01:22:08.884Z,3.80
2023-04-07T01:24:42.924Z,4.00
2023-04-07T01:27:36.923Z,3.80
2023-04-07T01:30:05.136Z,4.10
2023-04-07T01:32:33.807Z,3.50
2023-04-07T01:35:01.710Z,4.00
2023-04-07T01:37:30.765Z,3.40
2023-04-07T01:39:58.558Z,3.40
2023-04-07T01:42:26.320Z,3.40
2023-04-07T01:44:54.391Z,3.30
2023-04-07T01:47:22.800Z,3.30
2023-04-07T01:49:51.020Z,3.20
2023-04-07T01:52:19.222Z,3.40
2023-04-07T01:54:47.908Z,3.70
2023-04-07T01:57:16.040Z,3.40
2023-04-07T01:59:44.396Z,3.40
2023-04-07T02:02:15.014Z,3.60
2023-04-07T02:05:06.785Z,4.00
2023-04-07T02:07:40.602Z,3.30
2023-04-07T02:10:11.446Z,3.80
2023-04-07T02:12:41.597Z,3.50
2023-04-07T02:15:16.326Z,3.60
2023-04-07T02:17:49.134Z,4.40
2023-04-07T02:20:17.563Z,3.70
2023-04-07T02:22:45.439Z,3.80
2023-04-07T02:25:24.751Z,3.60
2023-04-07T02:27:55.368Z,4.00
2023-04-07T02:30:24.152Z,3.90
2023-04-07T02:32:52.952Z,3.70
2023-04-07T02:35:21.259Z,3.30
2023-04-07T02:37:49.234Z,4.10
2023-04-07T02:40:17.445Z,3.60
2023-04-07T02:42:46.340Z,3.60
2023-04-07T02:45:14.999Z,3.70
2023-04-07T02:47:42.988Z,3.30
2023-04-07T02:50:11.403Z,3.30
2023-04-07T02:52:39.365Z,4.00
2023-04-07T02:55:12.250Z,3.60
2023-04-07T02:57:40.344Z,4.30
2023-04-07T03:00:14.222Z,3.70
2023-04-07T03:02:54.382Z,3.80
2023-04-07T03:05:22.877Z,3.30
2023-04-07T03:07:50.752Z,3.80
2023-04-07T03:10:18.902Z,4.30
2023-04-07T03:12:49.025Z,3.50
2023-04-07T03:15:18.743Z,3.50
2023-04-07T03:17:51.817Z,3.90
2023-04-07T03:20:20.571Z,4.00
2023-04-07T03:22:49.370Z,3.60
2023-04-07T03:25:23.913Z,3.80
2023-04-07T03:27:52.293Z,4.00
2023-04-07T03:30:21.972Z,4.00
2023-04-07T03:32:49.861Z,4.60
2023-04-07T03:35:17.853Z,3.90
2023-04-07T03:37:45.914Z,4.20
2023-04-07T03:40:16.838Z,3.80
2023-04-07T03:42:47.051Z,4.10
2023-04-07T03:45:16.025Z,3.90
2023-04-07T03:47:51.452Z,3.90
2023-04-07T03:50:19.418Z,3.50
2023-04-07T03:52:53.693Z,4.50
2023-04-07T03:55:25.003Z,3.90
2023-04-07T03:57:55.933Z,4.30
2023-04-07T04:00:26.945Z,3.60
2023-04-07T04:03:05.699Z,4.00
2023-04-07T04:05:34.156Z,3.50
2023-04-07T04:08:04.602Z,4.00
2023-04-07T04:10:33.648Z,4.30
2023-04-07T04:13:06.909Z,4.00
2023-04-07T04:15:36.764Z,4.10
2023-04-07T04:18:05.752Z,4.10
2023-04-07T04:20:34.830Z,4.10
2023-04-07T04:25:39.716Z,3.90
2023-04-07T04:28:09.202Z,4.20
2023-04-07T04:30:37.159Z,4.40
2023-04-07T04:33:05.484Z,3.80
2023-04-07T04:35:41.222Z,4.20
2023-04-07T04:38:16.293Z,4.30
2023-04-07T04:40:48.089Z,4.10
2023-04-07T04:43:17.405Z,4.00
2023-04-07T04:45:46.118Z,3.90
2023-04-07T04:48:16.163Z,4.00
2023-04-07T04:50:44.195Z,4.30
2023-04-07T04:53:21.165Z,4.00
2023-04-07T04:55:58.109Z,4.20
2023-04-07T04:58:35.540Z,3.80
2023-04-07T05:01:07.281Z,3.70
2023-04-07T05:03:39.407Z,3.60
2023-04-07T05:06:13.199Z,3.80
2023-04-07T05:08:56.243Z,3.80
2023-04-07T05:11:27.442Z,3.50
2023-04-07T05:13:56.356Z,3.50
2023-04-07T05:16:27.627Z,3.40
2023-04-07T05:18:56.400Z,3.40
2023-04-07T05:21:27.117Z,3.60
2023-04-07T05:24:45.579Z,3.50
2023-04-07T05:27:13.759Z,3.90
2023-04-07T05:29:42.291Z,3.80
2023-04-07T05:32:15.586Z,3.70
2023-04-07T05:34:43.661Z,3.40
2023-04-07T05:37:16.622Z,3.20
2023-04-07T05:39:44.946Z,3.10
2023-04-07T05:42:13.764Z,3.10
2023-04-07T05:44:43.791Z,3.10
2023-04-07T05:47:12.326Z,3.50
2023-04-07T05:49:47.262Z,3.00
2023-04-07T05:52:15.596Z,2.70
2023-04-07T05:54:45.610Z,3.00
2023-04-07T05:57:14.122Z,2.80
2023-04-07T05:59:44.804Z,2.80
2023-04-07T06:02:13.385Z,2.80
2023-04-07T06:04:42.862Z,2.80
2023-04-07T06:07:12.339Z,2.70
2023-04-07T06:09:43.412Z,2.90
2023-04-07T06:12:12.426Z,2.90
2023-04-07T06:14:40.570Z,3.30
2023-04-07T06:17:11.289Z,3.30
2023-04-07T06:19:42.055Z,3.10
2023-04-07T06:22:09.877Z,3.20
2023-04-07T06:24:41.660Z,3.00
2023-04-07T06:27:09.757Z,3.10
2023-04-07T06:29:38.125Z,3.30
2023-04-07T06:32:06.770Z,2.90
2023-04-07T06:34:34.799Z,3.00
2023-04-07T06:37:03.404Z,3.40
2023-04-07T06:39:31.291Z,3.00
2023-04-07T06:41:59.490Z,3.40
2023-04-07T06:44:27.357Z,3.00
2023-04-07T06:46:55.668Z,3.80
2023-04-07T06:49:26.123Z,2.90
2023-04-07T06:51:54.107Z,3.20
2023-04-07T06:54:21.957Z,3.60
2023-04-07T06:56:53.448Z,4.20
2023-04-07T06:59:22.126Z,4.30
2023-04-07T07:01:50.105Z,4.00
2023-04-07T07:04:18.297Z,3.40
2023-04-07T07:06:46.702Z,3.10
2023-04-07T07:09:16.040Z,3.70
2023-04-07T07:11:46.609Z,3.80
2023-04-07T07:14:15.685Z,3.50
2023-04-07T07:16:43.728Z,4.20
2023-04-07T07:19:17.227Z,4.10
2023-04-07T07:21:45.267Z,3.50
2023-04-07T07:24:13.160Z,3.70
2023-04-07T07:26:43.625Z,4.40
2023-04-07T07:29:12.442Z,4.20
2023-04-07T07:31:41.616Z,3.60
2023-04-07T07:34:09.505Z,3.80
2023-04-07T07:36:39.578Z,3.70
2023-04-07T07:39:07.554Z,4.10
2023-04-07T07:41:35.733Z,4.40
2023-04-07T07:44:03.769Z,4.20
2023-04-07T07:46:31.779Z,4.30
2023-04-07T07:48:59.586Z,4.00
2023-04-07T07:51:28.091Z,4.00
2023-04-07T07:53:55.814Z,5.30
2023-04-07T07:56:23.959Z,4.40
2023-04-07T07:58:52.082Z,4.30
2023-04-07T08:01:21.549Z,4.00
2023-04-07T08:03:50.709Z,4.20
2023-04-07T08:06:18.988Z,4.80
2023-04-07T08:08:47.298Z,3.90
2023-04-07T08:11:15.403Z,4.20
2023-04-07T08:13:45.600Z,5.50
2023-04-07T08:16:13.964Z,4.90
2023-04-07T08:18:41.763Z,4.10
2023-04-07T08:21:09.789Z,4.80
2023-04-07T08:23:38.632Z,4.20
2023-04-07T08:26:06.602Z,4.30
2023-04-07T08:28:36.930Z,4.20
2023-04-07T08:31:05.491Z,4.40
2023-04-07T08:33:33.586Z,4.80
2023-04-07T08:36:05.533Z,4.20
2023-04-07T08:38:34.166Z,4.10
2023-04-07T08:41:08.639Z,4.70
2023-04-07T08:43:37.942Z,3.70
2023-04-07T08:46:09.176Z,4.10
2023-04-07T08:48:38.213Z,4.10
2023-04-07T08:51:08.296Z,4.20
2023-04-07T08:53:46.308Z,4.30
2023-04-07T08:56:17.921Z,4.60
2023-04-07T08:58:47.665Z,4.50
2023-04-07T09:01:18.237Z,4.60
2023-04-07T09:03:47.363Z,5.50
2023-04-07T09:06:15.559Z,4.70
2023-04-07T09:08:43.654Z,4.40
2023-04-07T09:11:11.871Z,5.50
2023-04-07T09:13:40.675Z,5.70
2023-04-07T09:16:08.680Z,4.30
2023-04-07T09:18:56.416Z,4.70
2023-04-07T09:21:25.469Z,4.00
2023-04-07T09:23:53.798Z,4.00
2023-04-07T09:26:25.232Z,4.20
2023-04-07T09:28:58.552Z,4.70
2023-04-07T09:31:52.823Z,4.20
2023-04-07T09:34:26.203Z,4.00
2023-04-07T09:36:57.026Z,4.00
2023-04-07T09:39:25.702Z,4.30
2023-04-07T09:41:53.606Z,4.30
2023-04-07T09:44:22.090Z,3.80
2023-04-07T09:46:54.342Z,3.80
2023-04-07T09:49:25.834Z,4.30
2023-04-07T09:51:58.502Z,4.20
2023-04-07T09:54:39.651Z,5.70
2023-04-07T09:57:08.872Z,4.30
2023-04-07T09:59:39.396Z,4.90
2023-04-07T10:02:08.564Z,4.40
2023-04-07T10:04:37.452Z,3.80
2023-04-07T10:07:05.692Z,4.10
2023-04-07T10:09:33.989Z,4.20
2023-04-07T10:12:04.326Z,3.90
2023-04-07T10:14:32.517Z,4.40
2023-04-07T10:17:03.476Z,4.40
2023-04-07T10:19:32.711Z,4.30
2023-04-07T10:22:02.090Z,4.20
2023-04-07T10:24:49.620Z,4.00
2023-04-07T10:27:19.934Z,4.80
2023-04-07T10:29:49.224Z,4.40
2023-04-07T10:32:17.315Z,3.70
2023-04-07T10:34:55.947Z,4.30
2023-04-07T10:37:24.203Z,4.30
2023-04-07T10:40:12.822Z,3.80
2023-04-07T10:42:40.926Z,3.50
2023-04-07T10:45:09.625Z,3.50
2023-04-07T10:48:11.318Z,3.50
2023-04-07T10:50:39.373Z,3.60
2023-04-07T10:53:10.846Z,3.30
2023-04-07T10:55:43.961Z,3.50
2023-04-07T10:58:18.875Z,4.90
2023-04-07T11:01:07.814Z,3.90
2023-04-07T11:03:39.697Z,3.90
2023-04-07T11:06:12.667Z,3.30
2023-04-07T11:08:42.347Z,3.40
2023-04-07T11:11:13.710Z,3.40
2023-04-07T11:13:49.859Z,3.10
2023-04-07T11:16:19.628Z,3.20
2023-04-07T11:18:50.152Z,3.90
2023-04-07T11:21:18.761Z,4.60
2023-04-07T11:23:47.099Z,3.50
2023-04-07T11:26:16.171Z,3.80
2023-04-07T11:28:51.466Z,3.70
2023-04-07T11:31:23.204Z,3.90
2023-04-07T11:33:59.280Z,3.60
2023-04-07T11:36:31.029Z,3.80
2023-04-07T11:38:59.616Z,3.90
2023-04-07T11:41:28.183Z,3.70
2023-04-07T11:44:12.155Z,3.50
2023-04-07T11:46:54.743Z,3.60
2023-04-07T11:49:23.903Z,4.00
2023-04-07T11:52:05.873Z,3.80
2023-04-07T11:54:41.416Z,4.10
2023-04-07T11:57:12.463Z,3.70
2023-04-07T11:59:43.677Z,3.60
2023-04-07T12:02:11.588Z,3.60
2023-04-07T12:04:40.747Z,4.40
2023-04-07T12:07:09.883Z,3.40
2023-04-07T12:09:38.761Z,3.30
2023-04-07T12:12:08.160Z,3.50
2023-04-07T12:14:56.416Z,3.70
2023-04-07T12:17:26.680Z,3.60
2023-04-07T12:19:54.455Z,3.40
2023-04-07T12:22:23.879Z,3.40
2023-04-07T12:24:51.936Z,3.80
2023-04-07T12:27:41.585Z,3.60
2023-04-07T12:30:12.916Z,3.80
2023-04-07T12:32:43.425Z,3.90
2023-04-07T12:35:13.250Z,3.90
2023-04-07T12:37:41.648Z,4.40
2023-04-07T12:40:10.445Z,4.90
2023-04-07T12:42:41.848Z,4.40
2023-04-07T12:45:11.961Z,4.30
2023-04-07T12:47:40.846Z,4.80
2023-04-07T12:50:09.086Z,4.40
2023-04-07T12:52:44.274Z,4.30
2023-04-07T12:55:14.304Z,5.50
2023-04-07T12:57:42.540Z,5.00
2023-04-07T13:00:11.402Z,5.30
2023-04-07T13:02:42.638Z,5.10
2023-04-07T13:05:10.620Z,5.20
2023-04-07T13:07:42.634Z,6.30
2023-04-07T13:10:12.187Z,5.30
2023-04-07T13:12:41.317Z,5.60
2023-04-07T13:15:09.229Z,4.80
2023-04-07T13:17:38.595Z,5.00
2023-04-07T13:20:07.796Z,5.00
2023-04-07T13:22:36.252Z,4.90
2023-04-07T13:25:04.921Z,5.90
2023-04-07T13:27:34.108Z,5.60
2023-04-07T13:30:02.256Z,5.10
2023-04-07T13:32:34.630Z,7.70
2023-04-07T13:35:05.068Z,5.30
2023-04-07T13:37:33.120Z,5.40
2023-04-07T13:40:01.107Z,4.80
2023-04-07T13:42:29.266Z,4.70
2023-04-07T13:44:57.135Z,4.40
2023-04-07T13:47:26.548Z,4.40
2023-04-07T13:49:54.339Z,5.90
2023-04-07T13:52:22.956Z,5.40
2023-04-07T13:54:51.615Z,5.10
2023-04-07T13:57:21.126Z,5.30
2023-04-07T13:59:49.503Z,5.50
2023-04-07T14:02:18.199Z,5.60
2023-04-07T14:04:46.472Z,6.90
2023-04-07T14:07:16.063Z,5.10
2023-04-07T14:09:48.236Z,6.10
2023-04-07T14:12:16.340Z,5.10
2023-04-07T14:14:45.773Z,5.40
2023-04-07T14:17:13.786Z,5.40
2023-04-07T14:19:42.180Z,5.60
2023-04-07T14:22:11.125Z,5.10
2023-04-07T14:24:39.974Z,6.60
2023-04-07T14:27:08.205Z,5.90
2023-04-07T14:29:36.713Z,5.40
2023-04-07T14:32:04.699Z,5.60
2023-04-07T14:34:32.624Z,6.80
2023-04-07T14:37:00.541Z,4.80
2023-04-07T14:39:29.090Z,5.20
2023-04-07T14:41:57.003Z,5.20
2023-04-07T14:44:25.247Z,5.40
2023-04-07T14:46:53.145Z,5.60
2023-04-07T14:49:21.170Z,5.00
2023-04-07T14:51:49.324Z,5.60
2023-04-07T14:54:18.015Z,5.40
2023-04-07T14:56:45.879Z,5.70
2023-04-07T14:59:17.024Z,6.00
2023-04-07T15:01:44.944Z,4.60
2023-04-07T15:04:14.243Z,5.90
2023-04-07T15:06:42.905Z,5.00
2023-04-07T15:09:10.974Z,5.30
2023-04-07T15:11:38.789Z,4.60
2023-04-07T15:14:06.764Z,5.00
2023-04-07T15:16:34.960Z,9.30
2023-04-07T15:19:03.111Z,5.40
2023-04-07T15:21:31.585Z,5.20
2023-04-07T15:23:59.550Z,7.60
2023-04-07T15:26:27.671Z,5.70
2023-04-07T15:28:58.313Z,5.90
2023-04-07T15:31:28.488Z,7.30
2023-04-07T15:33:57.216Z,5.50
2023-04-07T15:36:26.015Z,7.00
2023-04-07T15:38:54.581Z,5.80
2023-04-07T15:41:23.423Z,6.00
2023-04-07T15:43:51.528Z,7.10
2023-04-07T15:46:19.568Z,6.50
2023-04-07T15:48:48.040Z,6.40
2023-04-07T15:51:16.207Z,6.20
2023-04-07T15:53:46.458Z,6.50
2023-04-07T15:56:14.352Z,5.80
2023-04-07T15:58:45.141Z,5.70
2023-04-07T16:01:13.001Z,6.10
2023-04-07T16:03:42.167Z,6.70
2023-04-07T16:06:10.781Z,6.50
2023-04-07T16:08:38.624Z,7.60
2023-04-07T16:11:07.198Z,7.60
2023-04-07T16:13:35.184Z,9.60
2023-04-07T16:16:08.633Z,12.00
2023-04-07T16:18:39.318Z,11.30
2023-04-07T16:21:08.610Z,14.70
2023-04-07T16:23:42.742Z,15.00
2023-04-07T16:26:11.079Z,18.10
2023-04-07T16:28:41.876Z,15.60
2023-04-07T16:31:12.325Z,9.90
2023-04-07T16:33:40.806Z,9.30
2023-04-07T16:36:08.854Z,8.10
2023-04-07T16:38:38.365Z,7.50
2023-04-07T16:41:07.590Z,7.00
2023-04-07T16:43:36.665Z,7.90
2023-04-07T16:46:06.379Z,6.80
2023-04-07T16:48:34.432Z,12.80
2023-04-07T16:51:02.188Z,11.90
2023-04-07T16:53:30.048Z,10.00
2023-04-07T16:55:57.849Z,10.20
2023-04-07T16:58:25.968Z,10.60
2023-04-07T17:00:53.953Z,10.60
2023-04-07T17:03:23.345Z,5.80
2023-04-07T17:05:51.394Z,6.30
2023-04-07T17:08:19.762Z,6.20
2023-04-07T17:10:47.580Z,6.00
2023-04-07T17:13:15.467Z,8.90
2023-04-07T17:15:47.733Z,6.40
2023-04-07T17:18:16.552Z,6.90
2023-04-07T17:20:44.458Z,7.30
2023-04-07T17:23:18.326Z,7.20
2023-04-07T17:25:48.973Z,9.10
2023-04-07T17:28:17.547Z,18.10
2023-04-07T17:30:46.113Z,25.80
2023-04-07T17:33:14.881Z,23.80
2023-04-07T17:35:42.768Z,21.30
2023-04-07T17:38:11.433Z,17.10
2023-04-07T17:43:00.149Z,15.10
2023-04-07T17:45:28.325Z,8.60
2023-04-07T17:47:56.296Z,8.00
2023-04-07T17:50:29.620Z,6.80
2023-04-07T17:53:00.026Z,8.60
2023-04-07T17:55:28.468Z,7.70
2023-04-07T17:58:01.003Z,6.70
2023-04-07T18:00:29.823Z,6.20
2023-04-07T18:03:11.788Z,6.80
2023-04-07T18:05:45.021Z,6.40
2023-04-07T18:08:13.277Z,5.50
2023-04-07T18:10:41.391Z,5.40
2023-04-07T18:13:09.490Z,6.40
2023-04-07T18:15:38.099Z,5.60
2023-04-07T18:18:06.503Z,8.50
2023-04-07T18:20:36.149Z,8.10
2023-04-07T18:23:04.901Z,9.10
2023-04-07T18:25:34.074Z,8.50
2023-04-07T18:28:05.612Z,11.50
2023-04-07T18:30:35.504Z,13.10
2023-04-07T18:33:08.528Z,21.50
2023-04-07T18:35:41.862Z,22.20
2023-04-07T18:38:10.024Z,24.80
2023-04-07T18:40:38.092Z,29.00
2023-04-07T18:43:05.882Z,45.60
2023-04-07T18:45:36.811Z,50.30
2023-04-07T18:48:05.679Z,38.90
2023-04-07T18:50:34.254Z,32.30
2023-04-07T18:53:02.308Z,28.90
2023-04-07T18:55:30.168Z,25.50
2023-04-07T18:58:00.727Z,25.40
2023-04-07T19:00:35.906Z,25.10
2023-04-07T19:03:04.076Z,29.40
2023-04-07T19:05:31.946Z,31.40
2023-04-07T19:08:00.292Z,32.20
2023-04-07T19:10:28.374Z,35.60
2023-04-07T19:12:56.711Z,40.40
2023-04-07T19:15:36.427Z,37.50
2023-04-07T19:18:04.307Z,35.80
2023-04-07T19:20:33.913Z,25.70
2023-04-07T19:23:02.051Z,31.50
2023-04-07T19:25:31.181Z,29.50
2023-04-07T19:27:59.096Z,31.10
2023-04-07T19:30:26.989Z,29.30
2023-04-07T19:32:56.486Z,25.30
2023-04-07T19:35:24.332Z,30.40
2023-04-07T19:37:53.561Z,37.40
2023-04-07T19:40:21.396Z,35.50
2023-04-07T19:42:50.127Z,43.90
2023-04-07T19:45:18.035Z,50.10
2023-04-07T19:47:46.190Z,38.10
2023-04-07T19:50:17.630Z,32.80
2023-04-07T19:52:45.621Z,31.80
2023-04-07T19:55:13.588Z,34.40
2023-04-07T19:57:42.125Z,26.00
2023-04-07T20:00:13.441Z,23.20
2023-04-07T20:03:09.822Z,27.20
2023-04-07T20:05:38.416Z,34.70
2023-04-07T20:08:07.573Z,30.20
2023-04-07T20:10:35.438Z,21.50
2023-04-07T20:13:06.392Z,21.30
2023-04-07T20:15:36.629Z,24.90
2023-04-07T20:18:04.794Z,22.10
2023-04-07T20:20:33.322Z,15.90
2023-04-07T20:23:01.936Z,17.30
2023-04-07T20:25:29.752Z,16.20
2023-04-07T20:28:01.795Z,16.10
2023-04-07T20:30:29.855Z,16.50
2023-04-07T20:32:59.080Z,16.50
2023-04-07T20:35:27.175Z,15.80
2023-04-07T20:37:55.269Z,12.20
2023-04-07T20:40:36.528Z,13.20
2023-04-07T20:43:05.540Z,11.30
2023-04-07T20:45:34.108Z,10.30
2023-04-07T20:48:02.776Z,14.00
2023-04-07T20:50:31.240Z,12.20
2023-04-07T20:52:59.173Z,12.40
2023-04-07T20:55:27.210Z,13.40
2023-04-07T20:57:55.137Z,17.50
2023-04-07T21:00:24.114Z,15.90
2023-04-07T21:02:52.239Z,16.10
2023-04-07T21:05:20.804Z,13.80
2023-04-07T21:07:48.875Z,14.50
2023-04-07T21:10:16.814Z,13.80
2023-04-07T21:12:44.638Z,16.60
2023-04-07T21:15:18.466Z,16.90
2023-04-07T21:17:47.650Z,18.50
2023-04-07T21:20:15.817Z,18.90
2023-04-07T21:22:44.449Z,23.40
2023-04-07T21:25:12.805Z,22.30
2023-04-07T21:27:40.950Z,22.90
2023-04-07T21:30:09.781Z,19.70
2023-04-07T21:32:38.073Z,20.10
2023-04-07T21:35:07.900Z,19.30
2023-04-07T21:37:35.821Z,23.60
2023-04-07T21:40:04.664Z,20.30
2023-04-07T21:42:33.035Z,21.50
2023-04-07T21:45:00.954Z,21.20
2023-04-07T21:47:29.055Z,21.60
2023-04-07T21:49:57.884Z,21.10
2023-04-07T21:52:26.442Z,21.90
2023-04-07T21:54:54.430Z,21.70
2023-04-07T21:57:31.352Z,26.20
2023-04-07T21:59:59.468Z,28.60
2023-04-07T22:02:27.469Z,36.80
2023-04-07T22:04:55.494Z,32.60
2023-04-07T22:07:23.928Z,24.10
2023-04-07T22:09:52.051Z,21.60
2023-04-07T22:12:19.989Z,22.60
2023-04-07T22:14:48.288Z,20.70
2023-04-07T22:17:16.324Z,22.40
2023-04-07T22:19:50.382Z,24.60
2023-04-07T22:22:18.376Z,23.30
2023-04-07T22:24:46.276Z,25.10
2023-04-07T22:27:14.448Z,23.40
2023-04-07T22:29:42.792Z,24.40
2023-04-07T22:32:12.045Z,23.80
2023-04-07T22:34:40.386Z,24.70
2023-04-07T22:37:08.135Z,23.90
2023-04-07T22:39:36.687Z,23.20
2023-04-07T22:42:04.805Z,26.80
2023-04-07T22:44:33.005Z,27.00
2023-04-07T22:47:01.393Z,29.20
2023-04-07T22:49:29.978Z,26.10
2023-04-07T22:51:57.848Z,27.30
2023-04-07T22:54:25.651Z,26.90
2023-04-07T22:56:55.196Z,26.20
2023-04-07T22:59:23.072Z,24.00
2023-04-07T23:01:51.057Z,24.00
2023-04-07T23:04:18.911Z,23.40
2023-04-07T23:06:47.304Z,22.80
2023-04-07T23:09:15.563Z,20.90
2023-04-07T23:11:45.718Z,21.50
2023-04-07T23:14:13.911Z,20.20
2023-04-07T23:16:43.145Z,20.20
2023-04-07T23:19:12.021Z,17.70
2023-04-07T23:21:40.045Z,17.10
2023-04-07T23:24:11.156Z,17.60
2023-04-07T23:26:40.163Z,18.10
2023-04-07T23:31:42.289Z,17.90
2023-04-07T23:34:10.253Z,18.40
2023-04-07T23:36:39.657Z,16.60
2023-04-07T23:39:07.488Z,17.50
2023-04-07T23:41:35.263Z,16.50
2023-04-07T23:44:03.878Z,16.20
2023-04-07T23:46:31.861Z,15.90
2023-04-07T23:48:59.733Z,15.60
2023-04-07T23:51:28.166Z,16.10
2023-04-07T23:53:56.938Z,14.00
2023-04-07T23:56:24.955Z,14.40
2023-04-07T23:58:52.824Z,14.80
